Kim, Colorado
Current Conditions -  °F | °C
As of 11:54 PM on Friday 24 Oct 2014 (Local Time) from KTAD Reporting Station
Clear Clear  
Wind Chill: 54°   Ceiling: Unl
Heat Index: 54°   Visibility: 10mi
Dew Point: 30°   Wind: 13mph
Humidity: 40%   Direction: 270°W
Pressure: 30.25"   Gusts: NA
Location:  37.25°N, 103.35°W
Report Text: KTAD 250554Z AUTO 27011KT 10SM CLR 12/M01 A3025 RMK AO2 SLP176 T01221011 10239 20106 50004
Loading
Personal Weather Stations






























Interactive Weather Map
Tropical Storm Tracking
New forecast layout! Learn more

10-Day Weather Forecast

Advertisements
Track Severe Weather on mobile